Time;durP1;ratioP1;P1;durP2;ratioP2;P2;SDS_P1;SDS_P2;PMS_P1;PMS_P2;Temp;Humidity;BMP_temperature;BMP_pressure;BME280_temperature;BME280_humidity;BME280_pressure;Samples;Min_cycle;Max_cycle;Signal;HPM_P1;HPM_P2
2022/09/21 00:00:26;;;;;;;0.40;0.25;;;19.40;57.00;;;;;;5084593;28;20093;-62
2022/09/21 00:02:55;;;;;;;0.15;0.15;;;19.40;57.10;;;;;;5084594;28;20089;-62
2022/09/21 00:05:21;;;;;;;0.22;0.20;;;19.40;57.00;;;;;;5066601;28;20066;-64
2022/09/21 00:07:47;;;;;;;0.30;0.20;;;19.40;57.00;;;;;;5084463;28;20024;-61
2022/09/21 00:10:13;;;;;;;0.10;0.10;;;19.40;57.00;;;;;;5084433;28;20084;-61
2022/09/21 00:12:39;;;;;;;0.10;0.10;;;19.40;57.10;;;;;;5084240;28;20044;-61
2022/09/21 00:15:07;;;;;;;0.30;0.20;;;19.40;57.10;;;;;;5084345;28;20040;-61
2022/09/21 00:17:33;;;;;;;0.20;0.10;;;19.40;57.10;;;;;;5084269;28;20079;-61
2022/09/21 00:20:01;;;;;;;0.17;0.10;;;19.40;57.10;;;;;;5084227;28;20039;-60
2022/09/21 00:22:27;;;;;;;0.13;0.13;;;19.40;57.10;;;;;;5084509;28;20031;-62
2022/09/21 00:24:53;;;;;;;0.10;0.10;;;19.40;57.10;;;;;;5084050;28;20308;-61
2022/09/21 00:27:19;;;;;;;0.28;0.28;;;19.40;57.10;;;;;;5084396;28;20301;-61
2022/09/21 00:29:45;;;;;;;0.40;0.10;;;19.40;57.10;;;;;;5084067;28;20038;-61
2022/09/21 00:32:10;;;;;;;0.40;0.40;;;19.40;57.10;;;;;;5084035;28;20024;-61
2022/09/21 00:34:36;;;;;;;0.13;0.13;;;19.40;57.70;;;;;;5084037;28;20020;-62
2022/09/21 00:37:02;;;;;;;0.13;0.13;;;19.40;57.10;;;;;;5083874;28;20020;-62
2022/09/21 00:39:28;;;;;;;0.20;0.20;;;19.40;57.10;;;;;;5083405;28;20081;-63
2022/09/21 00:41:53;;;;;;;0.20;0.20;;;19.40;57.10;;;;;;5083883;28;20017;-63
2022/09/21 00:44:26;;;;;;;0.20;0.20;;;19.40;57.10;;;;;;5083809;28;20021;-62
2022/09/21 00:46:55;;;;;;;0.35;0.35;;;19.40;57.10;;;;;;5083735;28;20032;-62
2022/09/21 00:49:22;;;;;;;0.20;0.10;;;19.40;57.10;;;;;;5083796;28;20040;-61
2022/09/21 00:51:48;;;;;;;0.38;0.38;;;19.40;57.10;;;;;;5083690;28;20023;-62
2022/09/21 00:54:23;;;;;;;0.75;0.30;;;19.30;57.10;;;;;;5083732;28;20336;-62
2022/09/21 00:56:49;;;;;;;0.75;0.10;;;19.30;57.10;;;;;;5083703;28;20217;-61
2022/09/21 00:59:17;;;;;;;0.20;0.13;;;19.40;57.10;;;;;;5083660;28;20016;-61
2022/09/21 01:01:43;;;;;;;0.28;0.20;;;19.40;57.10;;;;;;5083626;28;20043;-62
2022/09/21 01:04:12;;;;;;;0.10;0.10;;;19.30;57.10;;;;;;5083620;28;20347;-60
2022/09/21 01:06:39;;;;;;;0.60;0.25;;;19.40;57.10;;;;;;5083511;28;20028;-61
2022/09/21 01:09:04;;;;;;;0.20;0.20;;;19.30;57.10;;;;;;5083538;28;20009;-63
2022/09/21 01:11:37;;;;;;;0.17;0.10;;;19.40;57.20;;;;;;5083506;28;20020;-63
2022/09/21 01:14:02;;;;;;;0.13;0.13;;;19.40;57.10;;;;;;5083381;28;20351;-60
2022/09/21 01:16:41;;;;;;;0.10;0.10;;;19.30;57.10;;;;;;5083504;28;20024;-63
2022/09/21 01:19:33;;;;;;;0.20;0.20;;;19.40;57.10;;;;;;5083491;28;20189;-61
2022/09/21 01:22:27;;;;;;;0.22;0.22;;;19.40;57.10;;;;;;5083475;28;20020;-61
2022/09/21 01:25:39;;;;;;;0.28;0.28;;;19.30;57.10;;;;;;5083348;28;20047;-61
2022/09/21 01:28:36;;;;;;;0.30;0.30;;;19.30;57.10;;;;;;5083410;28;20072;-61
2022/09/21 01:31:05;;;;;;;0.50;0.28;;;19.30;57.10;;;;;;5083337;28;20020;-62
2022/09/21 01:33:47;;;;;;;0.20;0.20;;;19.30;57.10;;;;;;5083364;28;20017;-60
2022/09/21 01:36:16;;;;;;;0.10;0.10;;;19.30;57.10;;;;;;5083305;28;20028;-61
2022/09/21 01:38:48;;;;;;;0.20;0.20;;;19.30;57.10;;;;;;5083249;28;20021;-62
2022/09/21 01:41:18;;;;;;;0.32;0.30;;;19.30;57.10;;;;;;5065371;28;20029;-61
2022/09/21 01:43:51;;;;;;;0.20;0.20;;;19.30;57.10;;;;;;5083239;28;20038;-61
2022/09/21 01:46:20;;;;;;;0.25;0.20;;;19.30;57.10;;;;;;5065294;28;20028;-61
2022/09/21 01:48:55;;;;;;;0.25;0.20;;;19.30;57.10;;;;;;5083192;28;20239;-62
2022/09/21 01:51:25;;;;;;;0.10;0.10;;;19.30;57.10;;;;;;5087186;28;20009;-60
2022/09/21 01:54:06;;;;;;;0.20;0.20;;;19.30;57.10;;;;;;5087119;28;20046;-61
2022/09/21 01:56:42;;;;;;;0.15;0.15;;;19.30;57.10;;;;;;5087052;28;20024;-62
2022/09/21 01:59:24;;;;;;;0.20;0.13;;;19.30;57.10;;;;;;5087015;28;20016;-62
2022/09/21 02:02:00;;;;;;;0.22;0.20;;;19.30;57.10;;;;;;5086960;28;20016;-61
2022/09/21 02:04:26;;;;;;;0.20;0.20;;;19.30;57.10;;;;;;5086900;28;20200;-62
2022/09/21 02:06:52;;;;;;;0.20;0.20;;;19.30;57.10;;;;;;5086770;28;20028;-62
2022/09/21 02:09:19;;;;;;;0.20;0.20;;;19.20;57.10;;;;;;5086765;28;20023;-62
2022/09/21 02:11:45;;;;;;;0.30;0.30;;;19.30;57.10;;;;;;5086759;28;20036;-61
2022/09/21 02:14:18;;;;;;;0.30;0.30;;;19.20;57.10;;;;;;5086591;28;20052;-62
2022/09/21 02:17:02;;;;;;;0.30;0.30;;;19.20;57.10;;;;;;5086708;28;20027;-62
2022/09/21 02:19:45;;;;;;;0.30;0.25;;;19.20;57.10;;;;;;5086603;28;20020;-62
2022/09/21 02:22:35;;;;;;;0.28;0.20;;;19.20;57.10;;;;;;5086607;28;20021;-62
2022/09/21 02:25:13;;;;;;;0.28;0.20;;;19.20;57.10;;;;;;5086485;28;20021;-61
2022/09/21 02:27:42;;;;;;;;;;;19.20;57.10;;;;;;5086919;28;20256;-62
2022/09/21 02:30:22;;;;;;;0.20;0.20;;;19.20;57.10;;;;;;5086739;28;19943;-62
2022/09/21 02:33:24;;;;;;;0.40;0.40;;;19.20;57.10;;;;;;5086427;28;20048;-62
2022/09/21 02:36:14;;;;;;;0.30;0.30;;;19.20;57.10;;;;;;5086353;28;20078;-62
2022/09/21 02:38:55;;;;;;;0.10;0.10;;;19.20;57.10;;;;;;5086305;28;20044;-62
2022/09/21 02:41:35;;;;;;;0.20;0.20;;;19.20;57.10;;;;;;5086229;28;20020;-61
2022/09/21 02:44:33;;;;;;;0.20;0.20;;;19.20;57.10;;;;;;5086184;28;20332;-61
2022/09/21 02:47:23;;;;;;;0.10;0.10;;;19.20;57.10;;;;;;5083022;28;20202;-63
2022/09/21 02:49:53;;;;;;;0.10;0.10;;;19.20;57.10;;;;;;5085476;28;20032;-62
2022/09/21 02:52:20;;;;;;;0.30;0.30;;;19.20;57.10;;;;;;5086030;28;20075;-61
2022/09/21 02:54:50;;;;;;;0.30;0.30;;;19.20;57.10;;;;;;5085934;28;20016;-62
2022/09/21 02:57:18;;;;;;;0.10;0.10;;;19.20;57.10;;;;;;5085910;28;20031;-62
2022/09/21 02:59:44;;;;;;;0.40;0.25;;;19.20;57.10;;;;;;5085836;28;20083;-62
2022/09/21 03:02:14;;;;;;;0.20;0.20;;;19.20;57.20;;;;;;5084797;28;20032;-62
2022/09/21 03:04:41;;;;;;;0.45;0.22;;;19.20;57.10;;;;;;5085787;28;20017;-62
2022/09/21 03:07:07;;;;;;;0.20;0.20;;;19.20;57.20;;;;;;5085701;28;20088;-61
2022/09/21 03:09:34;;;;;;;0.22;0.20;;;19.20;57.20;;;;;;5085683;28;20028;-62
2022/09/21 03:11:59;;;;;;;0.22;0.20;;;19.20;57.10;;;;;;5085512;28;20019;-63
2022/09/21 03:14:25;;;;;;;0.20;0.20;;;19.20;57.20;;;;;;5085581;28;20024;-62
2022/09/21 03:16:53;;;;;;;0.60;0.20;;;19.20;57.20;;;;;;5085474;28;20048;-62
2022/09/21 03:19:19;;;;;;;0.20;0.20;;;19.10;57.10;;;;;;5085781;28;20089;-61
2022/09/21 03:21:44;;;;;;;0.15;0.15;;;19.10;57.10;;;;;;5085490;28;20320;-61
2022/09/21 03:24:11;;;;;;;0.20;0.20;;;19.10;57.10;;;;;;5085434;28;20320;-61
2022/09/21 03:26:36;;;;;;;0.28;0.20;;;19.10;57.20;;;;;;5085324;28;20028;-63
2022/09/21 03:29:04;;;;;;;0.17;0.17;;;19.10;57.20;;;;;;5085323;28;20044;-63
2022/09/21 03:31:30;;;;;;;0.13;0.13;;;19.10;57.20;;;;;;5085266;28;20023;-62
2022/09/21 03:33:56;;;;;;;0.10;0.10;;;19.10;57.20;;;;;;5085257;28;20388;-61
2022/09/21 03:36:22;;;;;;;0.30;0.30;;;19.10;57.20;;;;;;5085412;28;20025;-62
2022/09/21 03:38:48;;;;;;;0.30;0.30;;;19.10;57.20;;;;;;5085121;28;20021;-62
2022/09/21 03:41:14;;;;;;;0.20;0.17;;;19.10;57.20;;;;;;5085071;28;20028;-61
2022/09/21 03:43:40;;;;;;;0.10;0.10;;;19.10;57.20;;;;;;5085055;28;20252;-62
2022/09/21 03:46:06;;;;;;;0.32;0.32;;;19.10;57.20;;;;;;5084897;28;20072;-62
2022/09/21 03:48:31;;;;;;;0.25;0.20;;;19.10;57.10;;;;;;5084914;28;20016;-61
2022/09/21 03:50:57;;;;;;;0.30;0.30;;;19.10;57.20;;;;;;5084900;28;20056;-61
2022/09/21 03:53:23;;;;;;;0.20;0.20;;;19.10;57.20;;;;;;5084812;28;20089;-61
2022/09/21 03:55:49;;;;;;;0.20;0.20;;;19.10;57.20;;;;;;5084778;28;20098;-62
2022/09/21 03:58:15;;;;;;;0.13;0.13;;;19.10;57.20;;;;;;5084731;28;20327;-60
2022/09/21 04:00:41;;;;;;;0.30;0.30;;;19.10;57.20;;;;;;5084656;28;20024;-63
2022/09/21 04:03:07;;;;;;;0.35;0.28;;;19.10;57.20;;;;;;5084566;28;20027;-62
2022/09/21 04:05:33;;;;;;;0.17;0.10;;;19.10;57.20;;;;;;5084469;28;20020;-62
2022/09/21 04:08:00;;;;;;;0.10;0.10;;;19.10;57.20;;;;;;5084543;28;20036;-60
2022/09/21 04:10:32;;;;;;;0.32;0.32;;;19.10;57.20;;;;;;5084466;28;20225;-62
2022/09/21 04:13:00;;;;;;;0.30;0.30;;;19.10;57.20;;;;;;5084148;28;20051;-62
2022/09/21 04:15:26;;;;;;;0.10;0.10;;;19.10;57.20;;;;;;5084388;28;20024;-62
2022/09/21 04:17:52;;;;;;;0.10;0.10;;;19.10;57.30;;;;;;5084347;28;20031;-61
2022/09/21 04:20:19;;;;;;;0.20;0.20;;;19.10;57.20;;;;;;5084307;28;20017;-62
2022/09/21 04:22:46;;;;;;;0.17;0.17;;;19.10;57.20;;;;;;5084244;28;20040;-62
2022/09/21 04:25:13;;;;;;;0.30;0.30;;;19.10;57.20;;;;;;5084115;28;20046;-63
2022/09/21 04:27:39;;;;;;;0.20;0.20;;;19.00;57.20;;;;;;5084171;28;20017;-62
2022/09/21 04:30:06;;;;;;;0.22;0.22;;;19.10;57.20;;;;;;5084095;28;20009;-62
2022/09/21 04:32:31;;;;;;;0.30;0.30;;;19.10;57.20;;;;;;5084024;28;20086;-61
2022/09/21 04:34:57;;;;;;;0.25;0.25;;;19.00;57.20;;;;;;5083963;28;20016;-62
2022/09/21 04:37:23;;;;;;;0.20;0.20;;;19.10;57.20;;;;;;5083985;28;20067;-62
2022/09/21 04:39:49;;;;;;;0.22;0.22;;;19.00;57.20;;;;;;5083932;28;20057;-60
2022/09/21 04:42:15;;;;;;;0.20;0.20;;;19.00;57.20;;;;;;5083832;28;20027;-61
2022/09/21 04:44:41;;;;;;;0.30;0.25;;;19.10;57.20;;;;;;5084078;28;20012;-62
2022/09/21 04:47:06;;;;;;;0.60;0.30;;;19.10;57.30;;;;;;5083717;28;20024;-62
2022/09/21 04:49:32;;;;;;;0.20;0.20;;;19.00;57.20;;;;;;5083768;28;20072;-61
2022/09/21 04:51:58;;;;;;;0.20;0.20;;;19.00;57.20;;;;;;5083816;28;20020;-61
2022/09/21 04:54:23;;;;;;;0.30;0.30;;;19.00;57.20;;;;;;5084000;28;20025;-61
2022/09/21 04:56:49;;;;;;;0.10;0.10;;;19.10;57.30;;;;;;5083659;28;20105;-61
2022/09/21 04:59:15;;;;;;;0.30;0.30;;;19.00;57.20;;;;;;5083694;28;20353;-61
2022/09/21 05:01:40;;;;;;;0.10;0.10;;;19.10;57.30;;;;;;5083602;28;20046;-60
2022/09/21 05:04:06;;;;;;;0.30;0.30;;;19.10;57.30;;;;;;5083633;28;20020;-61
2022/09/21 05:06:33;;;;;;;0.63;0.40;;;19.10;57.30;;;;;;5083500;28;20078;-62
2022/09/21 05:11:44;;;;;;;0.22;0.22;;;19.00;57.20;;;;;;5083619;28;20192;-61
2022/09/21 05:14:11;;;;;;;0.10;0.10;;;19.00;57.20;;;;;;5083403;28;20048;-62
2022/09/21 05:16:37;;;;;;;0.35;0.20;;;19.00;57.20;;;;;;5083457;28;20023;-60
2022/09/21 05:19:03;;;;;;;0.20;0.20;;;19.00;57.20;;;;;;5083474;28;20048;-59
2022/09/21 05:21:30;;;;;;;0.70;0.30;;;19.00;57.20;;;;;;5083425;28;20044;-62
2022/09/21 05:23:56;;;;;;;0.50;0.30;;;19.00;57.20;;;;;;5082849;28;20250;-62
2022/09/21 05:26:22;;;;;;;0.22;0.22;;;19.00;57.20;;;;;;5083291;28;20013;-62
2022/09/21 05:28:48;;;;;;;0.25;0.25;;;19.00;57.20;;;;;;5083364;28;20017;-62
2022/09/21 05:31:18;;;;;;;0.35;0.30;;;19.00;57.20;;;;;;5083616;28;20023;-62
2022/09/21 05:34:09;;;;;;;0.20;0.20;;;19.00;57.20;;;;;;5083571;28;20016;-61
2022/09/21 05:37:02;;;;;;;0.10;0.10;;;19.00;57.20;;;;;;5083317;28;20080;-63
2022/09/21 05:39:28;;;;;;;0.35;0.30;;;19.00;57.20;;;;;;5083321;28;20024;-62
2022/09/21 05:41:54;;;;;;;0.45;0.30;;;19.00;57.20;;;;;;5083276;28;20040;-62
2022/09/21 05:44:20;;;;;;;0.47;0.20;;;19.00;57.20;;;;;;5083235;28;20215;-61
2022/09/21 05:46:54;;;;;;;0.20;0.20;;;19.00;57.20;;;;;;5065268;28;20036;-62
2022/09/21 05:49:42;;;;;;;0.32;0.32;;;19.00;57.20;;;;;;5083234;28;20024;-61
2022/09/21 05:52:34;;;;;;;0.20;0.20;;;19.00;57.20;;;;;;5051965;28;20032;-63
2022/09/21 05:55:34;;;;;;;0.50;0.30;;;19.00;57.20;;;;;;5083168;28;20021;-63
2022/09/21 05:58:09;;;;;;;0.10;0.10;;;19.00;57.20;;;;;;5083153;28;20369;-61
2022/09/21 06:01:18;;;;;;;0.20;0.20;;;19.00;57.20;;;;;;5083060;28;20204;-62
2022/09/21 06:03:43;;;;;;;0.22;0.20;;;19.00;57.20;;;;;;5082556;28;20028;-61
2022/09/21 06:06:09;;;;;;;0.32;0.32;;;19.00;57.10;;;;;;5082895;28;20021;-62
2022/09/21 06:08:35;;;;;;;0.30;0.30;;;19.00;57.20;;;;;;5082997;28;20023;-60
2022/09/21 06:11:01;;;;;;;0.28;0.20;;;19.00;57.20;;;;;;5082980;28;20021;-59
2022/09/21 06:13:26;;;;;;;0.25;0.25;;;19.00;57.20;;;;;;5082796;28;20048;-61
2022/09/21 06:15:52;;;;;;;0.30;0.30;;;19.00;57.20;;;;;;5082872;28;20122;-62
2022/09/21 06:18:19;;;;;;;3.38;0.70;;;19.00;57.20;;;;;;5082851;28;20016;-61
2022/09/21 06:20:45;;;;;;;2.92;0.55;;;19.00;57.10;;;;;;5082805;28;20066;-62
2022/09/21 06:23:12;;;;;;;0.40;0.40;;;19.00;57.20;;;;;;5082818;28;20079;-59
2022/09/21 06:25:38;;;;;;;0.30;0.30;;;19.00;57.20;;;;;;5082752;28;20081;-62
2022/09/21 06:28:13;;;;;;;1.85;0.60;;;19.00;57.20;;;;;;5082779;28;20200;-62
2022/09/21 06:30:41;;;;;;;2.67;0.82;;;19.10;57.10;;;;;;5082806;28;20013;-62
2022/09/21 06:33:07;;;;;;;4.18;0.52;;;19.10;57.20;;;;;;5082777;28;20022;-62
2022/09/21 06:35:34;;;;;;;2.70;0.50;;;19.00;57.10;;;;;;5082747;28;20020;-61
2022/09/21 06:38:05;;;;;;;3.65;0.47;;;19.10;57.10;;;;;;5085917;28;20020;-62
2022/09/21 06:40:35;;;;;;;4.68;0.43;;;19.10;57.10;;;;;;5086224;28;20216;-66
2022/09/21 06:43:05;;;;;;;1.52;0.55;;;19.00;57.20;;;;;;5086356;28;20023;-66
2022/09/21 06:45:31;;;;;;;3.85;0.82;;;19.10;57.20;;;;;;5086127;28;20087;-63
2022/09/21 06:47:57;;;;;;;1.10;0.40;;;19.10;57.20;;;;;;5086137;28;20047;-65
2022/09/21 06:50:23;;;;;;;2.78;0.82;;;19.10;57.20;;;;;;5086095;28;20084;-63
2022/09/21 06:52:50;;;;;;;3.72;0.60;;;19.10;57.20;;;;;;5068243;28;20070;-63
2022/09/21 06:55:16;;;;;;;1.67;0.57;;;19.10;57.30;;;;;;5086298;28;20084;-63
2022/09/21 06:57:42;;;;;;;2.03;0.68;;;19.10;57.10;;;;;;5085966;28;20050;-63
2022/09/21 07:00:10;;;;;;;1.48;0.40;;;19.20;57.00;;;;;;5085904;28;20019;-62
2022/09/21 07:02:36;;;;;;;0.60;0.47;;;19.30;56.90;;;;;;5085799;28;20193;-63
2022/09/21 07:05:05;;;;;;;1.77;0.40;;;19.30;56.80;;;;;;5085692;28;20027;-63
2022/09/21 07:07:31;;;;;;;10.48;0.90;;;19.40;56.60;;;;;;5085767;28;20343;-60
2022/09/21 07:10:00;;;;;;;0.93;0.40;;;19.50;56.50;;;;;;5085725;28;20024;-60
2022/09/21 07:12:33;;;;;;;3.88;0.40;;;19.50;56.50;;;;;;5085493;28;20236;-61
2022/09/21 07:14:59;;;;;;;5.32;0.30;;;19.50;56.50;;;;;;5085682;28;20263;-61
2022/09/21 07:17:26;;;;;;;1.17;0.30;;;19.40;56.60;;;;;;5085551;28;20087;-60
2022/09/21 07:19:52;;;;;;;0.80;0.60;;;19.40;56.80;;;;;;5085787;28;20012;-61
2022/09/21 07:22:17;;;;;;;1.45;0.80;;;19.50;56.70;;;;;;5085503;28;20084;-61
2022/09/21 07:24:43;;;;;;;3.65;0.65;;;19.50;56.70;;;;;;5085421;28;20012;-61
2022/09/21 07:27:09;;;;;;;0.88;0.22;;;19.50;56.70;;;;;;5085303;28;20101;-61
2022/09/21 07:29:34;;;;;;;1.92;0.45;;;19.50;56.70;;;;;;5085350;28;20016;-61
2022/09/21 07:32:00;;;;;;;0.68;0.60;;;19.50;56.60;;;;;;5085303;28;20036;-62
2022/09/21 07:34:26;;;;;;;1.85;0.82;;;19.60;56.50;;;;;;5085192;28;20084;-61
2022/09/21 07:36:52;;;;;;;0.82;0.50;;;19.60;56.60;;;;;;5085181;28;20243;-61
2022/09/21 07:39:18;;;;;;;0.30;0.30;;;19.50;56.60;;;;;;5085159;28;20079;-61
2022/09/21 07:41:44;;;;;;;0.60;0.30;;;19.50;56.60;;;;;;5085109;28;20335;-61
2022/09/21 07:44:09;;;;;;;0.80;0.38;;;19.50;56.60;;;;;;5085043;28;20016;-61
2022/09/21 07:46:35;;;;;;;0.98;0.50;;;19.50;56.70;;;;;;5084768;28;20024;-61
2022/09/21 07:49:03;;;;;;;1.20;0.32;;;19.50;56.70;;;;;;5084663;28;20304;-61
2022/09/21 07:51:28;;;;;;;0.40;0.30;;;19.50;56.70;;;;;;5084835;28;20079;-59
2022/09/21 07:53:55;;;;;;;0.43;0.32;;;19.50;56.70;;;;;;5084853;28;20054;-61
2022/09/21 07:56:21;;;;;;;1.10;0.63;;;19.50;56.80;;;;;;5084809;28;20027;-60
2022/09/21 07:59:06;;;;;;;1.13;0.32;;;19.50;56.80;;;;;;5066886;28;20016;-61
2022/09/21 08:01:39;;;;;;;3.50;1.58;;;19.40;56.80;;;;;;5084718;28;20027;-61
2022/09/21 08:04:08;;;;;;;1.35;0.50;;;19.40;56.80;;;;;;5084630;28;20021;-60
2022/09/21 08:06:34;;;;;;;;;;;19.40;56.90;;;;;;5085248;28;20024;-61
2022/09/21 08:09:02;;;;;;;6.57;1.52;;;19.40;56.90;;;;;;5084533;28;20210;-61
2022/09/21 08:11:29;;;;;;;0.32;0.30;;;19.30;56.90;;;;;;5084794;28;20026;-61
2022/09/21 08:13:57;;;;;;;1.65;0.52;;;19.30;57.00;;;;;;5084335;28;20100;-61
2022/09/21 08:16:24;;;;;;;0.55;0.30;;;19.30;57.10;;;;;;5084402;28;20047;-60
2022/09/21 08:18:50;;;;;;;0.25;0.25;;;19.30;57.10;;;;;;5084348;28;20316;-60
2022/09/21 08:21:16;;;;;;;2.35;0.70;;;19.30;57.10;;;;;;5084302;28;20047;-61
2022/09/21 08:23:42;;;;;;;0.85;0.50;;;19.30;57.00;;;;;;5084275;28;20205;-61
2022/09/21 08:26:13;;;;;;;1.05;0.40;;;19.30;56.90;;;;;;5084140;28;20312;-61
2022/09/21 08:28:39;;;;;;;0.52;0.30;;;19.30;56.90;;;;;;5084468;28;20190;-61
2022/09/21 08:31:09;;;;;;;0.65;0.32;;;19.30;56.90;;;;;;5084128;28;20017;-62
2022/09/21 08:33:35;;;;;;;0.45;0.40;;;19.30;56.90;;;;;;5084123;28;20016;-61
2022/09/21 08:36:02;;;;;;;1.42;0.20;;;19.30;56.90;;;;;;5084021;28;20332;-60
2022/09/21 08:38:36;;;;;;;1.02;0.38;;;19.40;56.80;;;;;;5083982;28;20273;-61
2022/09/21 08:41:21;;;;;;;0.30;0.30;;;19.30;56.90;;;;;;5084223;28;20021;-60
2022/09/21 08:44:04;;;;;;;0.20;0.20;;;19.40;56.80;;;;;;5083985;28;20050;-61
2022/09/21 08:46:33;;;;;;;0.70;0.20;;;19.40;56.80;;;;;;5084138;28;20043;-60
2022/09/21 08:49:13;;;;;;;1.92;0.50;;;19.40;56.70;;;;;;5083890;28;20028;-60
2022/09/21 08:51:55;;;;;;;2.05;0.50;;;19.40;56.60;;;;;;5083871;28;20021;-60
2022/09/21 08:54:33;;;;;;;0.45;0.25;;;19.40;56.60;;;;;;5083840;28;20079;-61
2022/09/21 08:56:59;;;;;;;;;;;19.40;56.70;;;;;;5084234;28;20088;-61
2022/09/21 08:59:25;;;;;;;0.30;0.30;;;19.40;56.70;;;;;;5082948;28;19901;-61
2022/09/21 09:02:19;;;;;;;0.57;0.30;;;19.40;56.70;;;;;;5083704;28;20024;-62
2022/09/21 09:05:18;;;;;;;0.30;0.30;;;19.40;56.60;;;;;;5083675;28;20012;-60
2022/09/21 09:08:20;;;;;;;0.32;0.30;;;19.40;56.60;;;;;;5083621;28;20028;-61
2022/09/21 09:10:49;;;;;;;0.22;0.20;;;19.40;56.80;;;;;;5083615;28;20204;-61
2022/09/21 09:13:47;;;;;;;0.70;0.43;;;19.30;56.80;;;;;;5065535;28;20047;-61
2022/09/21 09:16:50;;;;;;;1.00;0.30;;;19.30;57.00;;;;;;5083430;28;20054;-61
2022/09/21 09:19:34;;;;;;;2.45;0.52;;;19.30;56.90;;;;;;5083546;28;20020;-62
2022/09/21 09:22:05;;;;;;;0.30;0.30;;;19.40;56.70;;;;;;5083545;28;20016;-61
2022/09/21 09:24:35;;;;;;;0.35;0.35;;;19.50;56.60;;;;;;5083479;28;20020;-61
2022/09/21 09:27:06;;;;;;;0.80;0.30;;;19.50;56.60;;;;;;5083341;28;20021;-61
2022/09/21 09:30:13;;;;;;;0.95;0.55;;;19.40;56.70;;;;;;5083455;28;20042;-61
2022/09/21 09:33:00;;;;;;;0.30;0.25;;;19.40;56.80;;;;;;5075094;28;20029;-61
2022/09/21 09:35:50;;;;;;;0.30;0.30;;;19.40;56.80;;;;;;5083371;28;20028;-60
2022/09/21 09:38:37;;;;;;;0.50;0.28;;;19.40;56.80;;;;;;5083592;28;20013;-61
2022/09/21 09:41:21;;;;;;;1.90;0.40;;;19.40;56.80;;;;;;5083323;28;20024;-61
2022/09/21 09:43:47;;;;;;;0.25;0.25;;;19.40;56.90;;;;;;5083313;28;20280;-61
2022/09/21 09:46:36;;;;;;;0.90;0.47;;;19.40;56.80;;;;;;5083169;28;20106;-60
2022/09/21 09:49:14;;;;;;;0.40;0.40;;;19.40;56.80;;;;;;5083206;28;20340;-61
2022/09/21 09:51:40;;;;;;;0.43;0.20;;;19.30;56.90;;;;;;5083197;28;20016;-61
2022/09/21 09:54:13;;;;;;;0.63;0.30;;;19.40;56.90;;;;;;5083137;28;20047;-61
2022/09/21 09:56:40;;;;;;;1.23;0.47;;;19.40;56.80;;;;;;5083150;28;20039;-61
2022/09/21 09:59:16;;;;;;;1.02;0.30;;;19.40;56.70;;;;;;5083076;28;20208;-62
2022/09/21 10:01:45;;;;;;;0.43;0.30;;;19.50;56.70;;;;;;5083085;28;20084;-62
2022/09/21 10:04:12;;;;;;;;;;;19.40;56.70;;;;;;5083478;28;20084;-62
2022/09/21 10:06:38;;;;;;;0.63;0.20;;;19.40;56.80;;;;;;5065103;28;20212;-61
2022/09/21 10:09:39;;;;;;;0.82;0.25;;;19.40;56.80;;;;;;5082974;28;20020;-61
2022/09/21 10:12:24;;;;;;;0.85;0.20;;;19.40;56.70;;;;;;5024640;28;20089;-60
2022/09/21 10:14:58;;;;;;;0.65;0.50;;;19.40;56.80;;;;;;5082419;28;20041;-61
2022/09/21 10:17:24;;;;;;;0.50;0.40;;;19.40;56.90;;;;;;5086692;28;20074;-61
2022/09/21 10:20:01;;;;;;;0.45;0.45;;;19.50;56.80;;;;;;5086631;28;20021;-61
2022/09/21 10:22:28;;;;;;;3.25;0.30;;;19.50;56.80;;;;;;5068776;28;20274;-62
2022/09/21 10:24:55;;;;;;;0.57;0.20;;;19.50;56.70;;;;;;5087147;28;20051;-61
2022/09/21 10:27:24;;;;;;;0.20;0.17;;;19.50;56.70;;;;;;5086551;28;20393;-62
2022/09/21 10:29:49;;;;;;;1.05;0.38;;;19.50;56.70;;;;;;5086760;28;20316;-61
2022/09/21 10:32:15;;;;;;;0.30;0.30;;;19.50;56.60;;;;;;5086684;28;20020;-62
2022/09/21 10:35:06;;;;;;;0.30;0.25;;;19.50;56.70;;;;;;5086621;28;20021;-61
2022/09/21 10:37:40;;;;;;;0.30;0.20;;;19.50;56.60;;;;;;5086343;28;20036;-62
2022/09/21 10:40:21;;;;;;;0.45;0.40;;;19.50;56.70;;;;;;5086375;28;20246;-61
2022/09/21 10:42:57;;;;;;;0.30;0.28;;;19.60;56.80;;;;;;5086200;28;20308;-60
2022/09/21 10:45:31;;;;;;;0.38;0.38;;;19.60;56.70;;;;;;5086168;28;20323;-60
2022/09/21 10:47:58;;;;;;;0.25;0.22;;;19.60;56.60;;;;;;5086188;28;20212;-61
2022/09/21 10:50:43;;;;;;;1.65;0.30;;;19.60;56.70;;;;;;5086145;28;20186;-61
2022/09/21 10:53:11;;;;;;;0.22;0.22;;;19.60;56.70;;;;;;5086087;28;20036;-61
2022/09/21 10:55:45;;;;;;;0.30;0.30;;;19.60;56.60;;;;;;5086023;28;20190;-61
2022/09/21 10:58:13;;;;;;;0.20;0.20;;;19.60;56.60;;;;;;5085970;28;20025;-60
2022/09/21 11:00:52;;;;;;;0.82;0.40;;;19.60;56.70;;;;;;5085951;28;20028;-61
2022/09/21 11:03:30;;;;;;;1.25;0.40;;;19.70;56.60;;;;;;5086174;28;20024;-62
2022/09/21 11:06:10;;;;;;;0.30;0.20;;;19.60;56.60;;;;;;5086074;28;20024;-61
2022/09/21 11:08:47;;;;;;;0.38;0.35;;;19.70;56.60;;;;;;5085832;28;20485;-62
2022/09/21 11:11:39;;;;;;;1.42;0.30;;;19.60;56.60;;;;;;5085771;28;20049;-61
2022/09/21 11:14:29;;;;;;;0.40;0.40;;;19.70;56.50;;;;;;5085568;28;20048;-61
2022/09/21 11:16:59;;;;;;;0.22;0.22;;;19.70;56.60;;;;;;5085656;28;20249;-60
2022/09/21 11:19:41;;;;;;;0.43;0.43;;;19.70;56.60;;;;;;5085615;28;20242;-61
2022/09/21 11:22:30;;;;;;;0.20;0.20;;;19.70;56.50;;;;;;5084641;28;20209;-59
2022/09/21 11:25:14;;;;;;;0.40;0.40;;;19.70;56.50;;;;;;5085441;28;20016;-61
2022/09/21 11:27:43;;;;;;;1.50;0.20;;;19.70;56.50;;;;;;5085468;28;20079;-62
2022/09/21 11:30:10;;;;;;;;;;;19.70;56.50;;;;;;5085411;28;20243;-60
2022/09/21 11:32:47;;;;;;;1.05;0.30;;;19.70;56.60;;;;;;5085292;28;19922;-61
2022/09/21 11:35:34;;;;;;;1.27;0.30;;;19.70;56.50;;;;;;5085262;28;20020;-60
2022/09/21 11:38:07;;;;;;;2.38;0.43;;;19.70;56.40;;;;;;5085201;28;20054;-61
2022/09/21 11:41:02;;;;;;;0.38;0.30;;;19.70;56.60;;;;;;5085173;28;20036;-60
2022/09/21 11:43:44;;;;;;;0.40;0.28;;;19.70;56.50;;;;;;5053812;28;20056;-61
2022/09/21 11:46:31;;;;;;;1.00;0.25;;;19.80;56.60;;;;;;5084992;28;20017;-61
2022/09/21 11:49:11;;;;;;;0.40;0.40;;;19.80;56.50;;;;;;5085006;28;20020;-60
2022/09/21 11:52:03;;;;;;;0.40;0.30;;;19.80;56.40;;;;;;5084947;28;20013;-60
2022/09/21 11:54:35;;;;;;;0.30;0.30;;;19.80;56.40;;;;;;5084459;28;20028;-61
2022/09/21 11:57:30;;;;;;;0.60;0.28;;;19.80;56.50;;;;;;5084819;28;20020;-61
2022/09/21 12:00:06;;;;;;;0.28;0.28;;;19.80;56.50;;;;;;5084763;28;20024;-61
2022/09/21 12:03:04;;;;;;;0.20;0.20;;;19.80;56.60;;;;;;5084769;28;20021;-61
2022/09/21 12:05:40;;;;;;;0.20;0.20;;;19.70;56.70;;;;;;5084656;28;20024;-60
2022/09/21 12:08:12;;;;;;;0.40;0.40;;;19.70;56.90;;;;;;5084621;28;20012;-61
2022/09/21 12:10:51;;;;;;;0.28;0.28;;;19.60;57.00;;;;;;5084563;28;20194;-61
2022/09/21 12:13:40;;;;;;;0.30;0.30;;;19.60;57.10;;;;;;5084347;28;20051;-60
2022/09/21 12:16:43;;;;;;;2.17;0.40;;;19.60;57.10;;;;;;5076327;28;20275;-61
2022/09/21 12:19:18;;;;;;;0.20;0.20;;;19.60;57.10;;;;;;5081222;28;20325;-61
2022/09/21 12:22:03;;;;;;;0.60;0.38;;;19.60;57.10;;;;;;5084378;28;20025;-61
2022/09/21 12:24:43;;;;;;;0.40;0.30;;;19.70;57.00;;;;;;5084357;28;20032;-62
2022/09/21 12:27:33;;;;;;;0.50;0.28;;;19.70;56.80;;;;;;5084211;28;20055;-61
2022/09/21 12:30:11;;;;;;;0.20;0.20;;;19.70;56.70;;;;;;5084262;28;20020;-61
2022/09/21 12:33:00;;;;;;;0.40;0.40;;;19.70;56.90;;;;;;5084224;28;20076;-61
2022/09/21 12:35:33;;;;;;;0.38;0.30;;;19.70;57.00;;;;;;5084064;28;20028;-61
2022/09/21 12:38:17;;;;;;;0.40;0.30;;;19.70;57.10;;;;;;5084047;28;20021;-60
2022/09/21 12:40:44;;;;;;;0.20;0.20;;;19.70;57.10;;;;;;5084060;28;20083;-60
2022/09/21 12:43:16;;;;;;;0.43;0.30;;;19.60;57.00;;;;;;5083956;28;20016;-61
2022/09/21 12:45:49;;;;;;;0.30;0.30;;;19.70;57.00;;;;;;5083831;28;20031;-61
2022/09/21 12:48:32;;;;;;;0.20;0.20;;;19.60;56.90;;;;;;5083912;28;20021;-60
2022/09/21 12:51:23;;;;;;;0.20;0.20;;;19.70;56.90;;;;;;5083920;28;20016;-63
2022/09/21 12:53:52;;;;;;;0.30;0.30;;;19.70;56.80;;;;;;5084089;28;20083;-61
2022/09/21 12:56:48;;;;;;;0.30;0.30;;;19.80;56.60;;;;;;5083802;28;20023;-61
2022/09/21 12:59:29;;;;;;;0.20;0.20;;;20.00;56.30;;;;;;5084025;28;20327;-62
2022/09/21 13:02:40;;;;;;;0.52;0.40;;;20.10;56.00;;;;;;5083668;28;20024;-61
2022/09/21 13:05:11;;;;;;;0.40;0.40;;;20.10;56.10;;;;;;5021912;28;20026;-61
2022/09/21 13:07:45;;;;;;;1.60;0.20;;;20.30;55.70;;;;;;5022034;28;20026;-61
2022/09/21 13:10:18;;;;;;;0.38;0.20;;;20.40;55.40;;;;;;5055987;28;20028;-61
2022/09/21 13:12:46;;;;;;;0.43;0.30;;;20.50;55.10;;;;;;5083417;28;20078;-61
2022/09/21 13:15:27;;;;;;;0.22;0.22;;;20.60;54.80;;;;;;5083572;28;20024;-62
2022/09/21 13:18:17;;;;;;;0.30;0.30;;;20.70;54.50;;;;;;5083543;28;20043;-61
2022/09/21 13:20:44;;;;;;;0.45;0.25;;;20.80;54.30;;;;;;5083516;28;20309;-61